Terminal Aerodrome Forecast
Issued by NWS

Home | Current Version | Previous Version | Graphics & Text | Print | Product List | Glossary On
Versions: 1 2 3 4 5 6 7 8 9 10 11 12 13 14 15 16 17 18 19 20 21
293
FTUS43 KABR 232003 AAE
TAFMBG
TAF AMD
KMBG 232003Z 2320/2418 11022G30KT P6SM BKN009 BKN100
      TEMPO 2320/2324 SCT009
     FM240000 10018G25KT P6SM BKN040
     FM240300 11020G28KT P6SM SCT100
     FM240400 12019G28KT P6SM BKN250 WS020/15045KT
     FM241400 18015G22KT P6SM OVC015
     FM241700 20015G25KT P6SM OVC070=

USA.gov is the U.S. government's official web portal to all federal, state and local government web resources and services.